Time;durP1;ratioP1;P1;durP2;ratioP2;P2;SDS_P1;SDS_P2;PMS_P1;PMS_P2;Temp;Humidity;BMP_temperature;BMP_pressure;BME280_temperature;BME280_humidity;BME280_pressure;Samples;Min_cycle;Max_cycle;Signal;HPM_P1;HPM_P2
2024/03/18 00:00:43;;;;;;;1999.90;999.90;;;;;;;;;;4990858;28;20804;-67
2024/03/18 00:03:28;;;;;;;1999.90;999.90;;;;;;;;;;4995691;28;20229;-69
2024/03/18 00:06:12;;;;;;;1999.90;999.90;;;;;;;;;;4995982;28;20205;-70
2024/03/18 00:08:57;;;;;;;1999.90;999.90;;;;;;;;;;4996245;28;20345;-69
2024/03/18 00:11:42;;;;;;;1999.90;999.90;;;;;;;;;;4994748;28;20506;-69
2024/03/18 00:14:29;;;;;;;1999.90;999.90;;;;;;;;;;4995506;28;20231;-69
2024/03/18 00:17:14;;;;;;;1999.90;999.90;;;;;;;;;;4995282;28;20222;-70
2024/03/18 00:19:59;;;;;;;1999.90;999.90;;;;;;;;;;4996149;28;20262;-70
2024/03/18 00:22:44;;;;;;;1999.90;999.90;;;;;;;;;;4994129;28;20233;-70
2024/03/18 00:25:30;;;;;;;1999.90;999.90;;;;;;;;;;4996021;28;20210;-69
2024/03/18 00:28:15;;;;;;;1999.90;999.90;;;;;;;;;;4976184;28;20218;-70
2024/03/18 00:31:01;;;;;;;1999.90;999.90;;;;;;;;;;4982945;28;20300;-67
2024/03/18 00:33:47;;;;;;;1999.90;999.90;;;;;;;;;;4995353;28;20312;-70
2024/03/18 00:36:32;;;;;;;1999.90;999.90;;;;;;;;;;4995368;28;20250;-69
2024/03/18 00:39:17;;;;;;;1999.90;999.90;;;;;;;;;;4995812;28;20213;-69
2024/03/18 00:42:02;;;;;;;1999.90;999.90;;;;;;;;;;4995129;28;20267;-69
2024/03/18 00:44:46;;;;;;;1999.90;999.90;;;;;;;;;;4995177;28;20280;-69
2024/03/18 00:47:33;;;;;;;1999.90;999.90;;;;;;;;;;4995523;28;20729;-70
2024/03/18 00:50:18;;;;;;;1999.90;999.90;;;;;;;;;;4995640;28;20214;-69
2024/03/18 00:53:03;;;;;;;1999.90;999.90;;;;;;;;;;4994106;28;20270;-70
2024/03/18 00:55:48;;;;;;;1999.90;999.90;;;;;;;;;;4978054;28;20349;-69
2024/03/18 00:58:33;;;;;;;1999.90;999.90;;;;;;;;;;4995680;28;20592;-70
2024/03/18 01:01:18;;;;;;;1999.90;999.90;;;;;;;;;;4994874;28;20340;-70
2024/03/18 01:04:04;;;;;;;1999.90;999.90;;;;;;;;;;4993685;28;20433;-69
2024/03/18 01:06:50;;;;;;;1999.90;999.90;;;;;;;;;;4994655;28;20730;-69
2024/03/18 01:09:36;;;;;;;1999.90;999.90;;;;;;;;;;4994751;28;20214;-69
2024/03/18 01:12:21;;;;;;;1999.90;999.90;;;;;;;;;;4994998;28;20215;-69
2024/03/18 01:15:07;;;;;;;1999.90;999.90;;;;;;;;;;4994101;28;20605;-69
2024/03/18 01:17:52;;;;;;;1999.90;999.90;;;;;;;;;;4994546;28;20198;-69
2024/03/18 01:20:39;;;;;;;1999.90;999.90;;;;;;;;;;4994678;28;20697;-69
2024/03/18 01:23:24;;;;;;;1999.90;999.90;;;;;;;;;;4974469;28;20414;-68
2024/03/18 01:26:09;;;;;;;1999.90;999.90;;;;;;;;;;4994708;28;20268;-68
2024/03/18 01:28:54;;;;;;;1999.90;999.90;;;;;;;;;;4994732;28;20211;-69
2024/03/18 01:31:39;;;;;;;1999.90;999.90;;;;;;;;;;4994672;28;20203;-69
2024/03/18 01:34:24;;;;;;;1999.90;999.90;;;;;;;;;;4994287;28;20242;-68
2024/03/18 01:37:10;;;;;;;1999.90;999.90;;;;;;;;;;4994342;28;20234;-69
2024/03/18 01:39:56;;;;;;;1999.90;999.90;;;;;;;;;;4994734;28;20210;-69
2024/03/18 01:42:41;;;;;;;1999.90;999.90;;;;;;;;;;4994416;28;20218;-69
2024/03/18 01:45:26;;;;;;;1999.90;999.90;;;;;;;;;;4994120;28;20267;-69
2024/03/18 01:48:12;;;;;;;1999.90;999.90;;;;;;;;;;4975059;28;20604;-69
2024/03/18 01:50:57;;;;;;;1999.90;999.90;;;;;;;;;;4977926;28;20695;-69
2024/03/18 01:53:43;;;;;;;1999.90;999.90;;;;;;;;;;4994128;28;20230;-69
2024/03/18 01:56:28;;;;;;;1999.90;999.90;;;;;;;;;;4993621;28;20441;-69
2024/03/18 01:59:13;;;;;;;1999.90;999.90;;;;;;;;;;4994048;28;20706;-69
2024/03/18 02:01:58;;;;;;;1999.90;999.90;;;;;;;;;;4993674;28;20254;-69
2024/03/18 02:04:43;;;;;;;1999.90;999.90;;;;;;;;;;4993788;28;20610;-68
2024/03/18 02:07:30;;;;;;;1999.90;999.90;;;;;;;;;;4993982;28;20214;-69
2024/03/18 02:10:17;;;;;;;1999.90;999.90;;;;;;;;;;4994094;28;20211;-69
2024/03/18 02:13:02;;;;;;;1999.90;999.90;;;;;;;;;;4974083;28;20267;-69
2024/03/18 02:15:47;;;;;;;1999.90;999.90;;;;;;;;;;4974277;28;20396;-69
2024/03/18 02:18:32;;;;;;;1999.90;999.90;;;;;;;;;;4993593;28;20694;-69
2024/03/18 02:21:17;;;;;;;1999.90;999.90;;;;;;;;;;4993476;28;20211;-69
2024/03/18 02:24:06;;;;;;;1999.90;999.90;;;;;;;;;;4993715;28;20366;-69
2024/03/18 02:26:51;;;;;;;1999.90;999.90;;;;;;;;;;4993408;28;20202;-67
2024/03/18 02:29:36;;;;;;;1999.90;999.90;;;;;;;;;;4993659;28;20203;-69
2024/03/18 02:32:21;;;;;;;1999.90;999.90;;;;;;;;;;4993421;28;20210;-68
2024/03/18 02:35:08;;;;;;;1999.90;999.90;;;;;;;;;;4993292;28;20623;-68
2024/03/18 02:37:53;;;;;;;1999.90;999.90;;;;;;;;;;4992766;28;20330;-68
2024/03/18 02:40:39;;;;;;;1999.90;999.90;;;;;;;;;;4993065;28;20582;-69
2024/03/18 02:43:24;;;;;;;1999.90;999.90;;;;;;;;;;4993207;28;20230;-68
2024/03/18 02:46:09;;;;;;;1999.90;999.90;;;;;;;;;;4993861;28;20285;-69
2024/03/18 02:48:54;;;;;;;1999.90;999.90;;;;;;;;;;4992069;28;20433;-69
2024/03/18 02:51:39;;;;;;;1999.90;999.90;;;;;;;;;;4992718;28;20230;-69
2024/03/18 02:54:24;;;;;;;1999.90;999.90;;;;;;;;;;4992953;28;20234;-68
2024/03/18 02:57:11;;;;;;;1999.90;999.90;;;;;;;;;;4992749;28;20270;-69
2024/03/18 02:59:56;;;;;;;1999.90;999.90;;;;;;;;;;4992932;28;20191;-69
2024/03/18 03:02:41;;;;;;;1999.90;999.90;;;;;;;;;;4992371;28;20595;-68
2024/03/18 03:05:26;;;;;;;1999.90;999.90;;;;;;;;;;4992736;28;20400;-69
2024/03/18 03:08:11;;;;;;;1999.90;999.90;;;;;;;;;;4973586;28;20322;-69
2024/03/18 03:10:57;;;;;;;1999.90;999.90;;;;;;;;;;4976843;28;20212;-69
2024/03/18 03:13:43;;;;;;;1999.90;999.90;;;;;;;;;;4992584;28;20230;-69
2024/03/18 03:16:29;;;;;;;1999.90;999.90;;;;;;;;;;4992572;28;20222;-69
2024/03/18 03:19:15;;;;;;;1999.90;999.90;;;;;;;;;;4992792;28;20223;-67
2024/03/18 03:22:00;;;;;;;1999.90;999.90;;;;;;;;;;4992372;28;20213;-67
2024/03/18 03:24:46;;;;;;;1999.90;999.90;;;;;;;;;;4992473;28;20246;-70
2024/03/18 03:27:32;;;;;;;1999.90;999.90;;;;;;;;;;4992215;28;20265;-70
2024/03/18 03:30:18;;;;;;;1999.90;999.90;;;;;;;;;;4993042;28;20911;-68
2024/03/18 03:33:05;;;;;;;1999.90;999.90;;;;;;;;;;4991637;28;20275;-68
2024/03/18 03:35:50;;;;;;;1999.90;999.90;;;;;;;;;;4992638;28;20211;-68
2024/03/18 03:38:34;;;;;;;1999.90;999.90;;;;;;;;;;4992314;28;20214;-69
2024/03/18 03:41:19;;;;;;;1999.90;999.90;;;;;;;;;;4973074;28;20585;-70
2024/03/18 03:44:05;;;;;;;1999.90;999.90;;;;;;;;;;4984755;28;20286;-68
2024/03/18 03:46:51;;;;;;;1999.90;999.90;;;;;;;;;;4992072;28;20204;-70
2024/03/18 03:49:36;;;;;;;1999.90;999.90;;;;;;;;;;4992782;28;20843;-69
2024/03/18 03:52:22;;;;;;;1999.90;999.90;;;;;;;;;;4992999;28;20226;-69
2024/03/18 03:55:08;;;;;;;1999.90;999.90;;;;;;;;;;4992600;28;20230;-68
2024/03/18 03:57:53;;;;;;;1999.90;999.90;;;;;;;;;;4990811;28;20975;-68
2024/03/18 04:00:42;;;;;;;1999.90;999.90;;;;;;;;;;4991944;28;20207;-68
2024/03/18 04:03:29;;;;;;;1999.90;999.90;;;;;;;;;;4972896;28;20761;-68
2024/03/18 04:06:14;;;;;;;1999.90;999.90;;;;;;;;;;4984517;28;20582;-69
2024/03/18 04:08:58;;;;;;;1999.90;999.90;;;;;;;;;;4992287;28;20784;-67
2024/03/18 04:11:43;;;;;;;1999.90;999.90;;;;;;;;;;4991741;28;20285;-68
2024/03/18 04:14:28;;;;;;;1999.90;999.90;;;;;;;;;;4992038;28;20284;-68
2024/03/18 04:17:14;;;;;;;1999.90;999.90;;;;;;;;;;4991618;28;20375;-69
2024/03/18 04:20:00;;;;;;;1999.90;999.90;;;;;;;;;;4992258;28;20199;-70
2024/03/18 04:22:46;;;;;;;1999.90;999.90;;;;;;;;;;4992637;28;20297;-69
2024/03/18 04:25:33;;;;;;;1999.90;999.90;;;;;;;;;;4992434;28;20239;-69
2024/03/18 04:28:18;;;;;;;1999.90;999.90;;;;;;;;;;4992286;28;20599;-69
2024/03/18 04:31:05;;;;;;;1999.90;999.90;;;;;;;;;;4991386;28;20211;-70
2024/03/18 04:33:50;;;;;;;1999.90;999.90;;;;;;;;;;4992083;28;20255;-67
2024/03/18 04:36:37;;;;;;;1999.90;999.90;;;;;;;;;;4991020;28;20468;-69
2024/03/18 04:39:22;;;;;;;1999.90;999.90;;;;;;;;;;4995833;28;20275;-70
2024/03/18 04:42:07;;;;;;;1999.90;999.90;;;;;;;;;;4996292;28;20657;-68
2024/03/18 04:44:52;;;;;;;1999.90;999.90;;;;;;;;;;4995698;28;20645;-69
2024/03/18 04:47:38;;;;;;;1999.90;999.90;;;;;;;;;;4995425;28;20781;-69
2024/03/18 04:50:24;;;;;;;1999.90;999.90;;;;;;;;;;4995709;28;20202;-69
2024/03/18 04:53:11;;;;;;;1999.90;999.90;;;;;;;;;;4975562;28;20419;-69
2024/03/18 04:55:56;;;;;;;1999.90;999.90;;;;;;;;;;4987310;28;20206;-69
2024/03/18 04:58:41;;;;;;;1999.90;999.90;;;;;;;;;;4994582;28;20226;-69
2024/03/18 05:01:26;;;;;;;1999.90;999.90;;;;;;;;;;4995281;28;20206;-68
2024/03/18 05:04:12;;;;;;;1999.90;999.90;;;;;;;;;;4996580;28;20721;-70
2024/03/18 05:06:57;;;;;;;1999.90;999.90;;;;;;;;;;4994319;28;20620;-69
2024/03/18 05:09:45;;;;;;;1999.90;999.90;;;;;;;;;;4994733;28;20209;-69
2024/03/18 05:12:30;;;;;;;1999.90;999.90;;;;;;;;;;4994906;28;20419;-69
2024/03/18 05:15:15;;;;;;;1999.90;999.90;;;;;;;;;;4994367;28;21021;-69
2024/03/18 05:18:00;;;;;;;1999.90;999.90;;;;;;;;;;4994783;28;20255;-68
2024/03/18 05:20:45;;;;;;;1999.90;999.90;;;;;;;;;;4994459;28;20338;-70
2024/03/18 05:23:29;;;;;;;1999.90;999.90;;;;;;;;;;4994216;28;20241;-70
2024/03/18 05:26:16;;;;;;;1999.90;999.90;;;;;;;;;;4995085;28;20569;-67
2024/03/18 05:29:01;;;;;;;1999.90;999.90;;;;;;;;;;4994229;28;20206;-69
2024/03/18 05:31:46;;;;;;;1999.90;999.90;;;;;;;;;;4992857;28;20817;-70
2024/03/18 05:34:33;;;;;;;1999.90;999.90;;;;;;;;;;4993845;28;20230;-68
2024/03/18 05:37:19;;;;;;;1999.90;999.90;;;;;;;;;;4985224;28;20221;-70
2024/03/18 05:40:04;;;;;;;1999.90;999.90;;;;;;;;;;4994238;28;20271;-69
2024/03/18 05:42:51;;;;;;;1999.90;999.90;;;;;;;;;;4974865;28;20204;-70
2024/03/18 05:45:36;;;;;;;1999.90;999.90;;;;;;;;;;4975346;28;20565;-70
2024/03/18 05:48:20;;;;;;;1999.90;999.90;;;;;;;;;;4974674;28;20690;-71
2024/03/18 05:51:05;;;;;;;1999.90;999.90;;;;;;;;;;4974784;28;20213;-70
2024/03/18 05:53:51;;;;;;;1999.90;999.90;;;;;;;;;;4987109;28;20629;-68
2024/03/18 05:56:36;;;;;;;1999.90;999.90;;;;;;;;;;4994007;28;20212;-69
2024/03/18 05:59:22;;;;;;;1999.90;999.90;;;;;;;;;;4993820;28;20258;-69
2024/03/18 06:02:07;;;;;;;1999.90;999.90;;;;;;;;;;4993926;28;20282;-68
2024/03/18 06:04:51;;;;;;;1999.90;999.90;;;;;;;;;;4993557;28;20242;-69
2024/03/18 06:07:37;;;;;;;1999.90;999.90;;;;;;;;;;4994130;28;20202;-69
2024/03/18 06:10:22;;;;;;;1999.90;999.90;;;;;;;;;;4993706;28;20319;-70
2024/03/18 06:13:07;;;;;;;1999.90;999.90;;;;;;;;;;4992229;28;20209;-69
2024/03/18 06:15:53;;;;;;;1999.90;999.90;;;;;;;;;;4993634;28;20701;-70
2024/03/18 06:18:38;;;;;;;1999.90;999.90;;;;;;;;;;4986467;28;20226;-70
2024/03/18 06:21:28;;;;;;;1999.90;999.90;;;;;;;;;;4993016;28;20257;-69
2024/03/18 06:24:20;;;;;;;1999.90;999.90;;;;;;;;;;4992169;28;20599;-69
2024/03/18 06:27:04;;;;;;;1999.90;999.90;;;;;;;;;;4990290;28;20230;-70
2024/03/18 06:29:49;;;;;;;1999.90;999.90;;;;;;;;;;4993310;28;20718;-69
2024/03/18 06:32:36;;;;;;;1999.90;999.90;;;;;;;;;;4998101;28;20392;-69
2024/03/18 06:35:21;;;;;;;1999.90;999.90;;;;;;;;;;4998726;28;20214;-69
2024/03/18 06:38:06;;;;;;;1999.90;999.90;;;;;;;;;;4999399;28;20257;-68
2024/03/18 06:40:52;;;;;;;1999.90;999.90;;;;;;;;;;5014926;28;20450;-71
2024/03/18 06:43:37;;;;;;;1999.90;999.90;;;;;;;;;;5015733;28;20244;-72
2024/03/18 06:46:22;;;;;;;1999.90;999.90;;;;;;;;;;5015933;28;20218;-71
2024/03/18 06:49:08;;;;;;;1999.90;999.90;;;;;;;;;;5015639;28;20193;-70
2024/03/18 06:51:53;;;;;;;1999.90;999.90;;;;;;;;;;5015029;28;20202;-70
2024/03/18 06:54:39;;;;;;;1999.90;999.90;;;;;;;;;;5014675;28;20303;-70
2024/03/18 06:57:27;;;;;;;1999.90;999.90;;;;;;;;;;5015091;28;20187;-69
2024/03/18 07:00:12;;;;;;;1999.90;999.90;;;;;;;;;;5013706;28;20246;-69
2024/03/18 07:02:58;;;;;;;1999.90;999.90;;;;;;;;;;5015700;28;20211;-70
2024/03/18 07:05:44;;;;;;;1999.90;999.90;;;;;;;;;;5014063;28;20306;-68
2024/03/18 07:08:29;;;;;;;1999.90;999.90;;;;;;;;;;5010020;28;20209;-70
2024/03/18 07:11:15;;;;;;;1999.90;999.90;;;;;;;;;;5012052;28;20221;-69
2024/03/18 07:14:00;;;;;;;1999.90;999.90;;;;;;;;;;5013934;28;20228;-69
2024/03/18 07:16:45;;;;;;;1999.90;999.90;;;;;;;;;;5012275;28;20237;-71
2024/03/18 07:19:30;;;;;;;1999.90;999.90;;;;;;;;;;5015141;28;20220;-71
2024/03/18 07:22:16;;;;;;;1999.90;999.90;;;;;;;;;;5014585;28;20209;-69
2024/03/18 07:25:01;;;;;;;1999.90;999.90;;;;;;;;;;5014472;28;20265;-69
2024/03/18 07:27:47;;;;;;;1999.90;999.90;;;;;;;;;;5011074;28;20259;-71
2024/03/18 07:30:32;;;;;;;1999.90;999.90;;;;;;;;;;5012944;28;20230;-69
2024/03/18 07:33:18;;;;;;;1999.90;999.90;;;;;;;;;;5014980;28;20246;-69
2024/03/18 07:36:03;;;;;;;1999.90;999.90;;;;;;;;;;5015670;28;20208;-71
2024/03/18 07:38:50;;;;;;;1999.90;999.90;;;;;;;;;;5013047;28;20258;-70
2024/03/18 07:41:36;;;;;;;1999.90;999.90;;;;;;;;;;5014608;28;20218;-70
2024/03/18 07:44:21;;;;;;;1999.90;999.90;;;;;;;;;;5014707;28;20227;-70
2024/03/18 07:47:07;;;;;;;1999.90;999.90;;;;;;;;;;5014695;28;20262;-72
2024/03/18 07:49:52;;;;;;;1999.90;999.90;;;;;;;;;;5013150;28;20254;-70
2024/03/18 07:52:37;;;;;;;1999.90;999.90;;;;;;;;;;5013670;28;20202;-71
2024/03/18 07:55:23;;;;;;;1999.90;999.90;;;;;;;;;;5014782;28;20187;-69
2024/03/18 07:58:09;;;;;;;1999.90;999.90;;;;;;;;;;5014524;28;20343;-72
2024/03/18 08:00:55;;;;;;;1999.90;999.90;;;;;;;;;;5014773;28;20215;-68
2024/03/18 08:03:40;;;;;;;1999.90;999.90;;;;;;;;;;5014538;28;20237;-70
2024/03/18 08:06:25;;;;;;;1999.90;999.90;;;;;;;;;;5013659;28;20215;-71
2024/03/18 08:09:10;;;;;;;1999.90;999.90;;;;;;;;;;5014345;28;20718;-71
2024/03/18 08:11:56;;;;;;;1999.90;999.90;;;;;;;;;;4993190;28;20437;-70
2024/03/18 08:14:43;;;;;;;1999.90;999.90;;;;;;;;;;4995522;28;20723;-71
2024/03/18 08:17:28;;;;;;;1999.90;999.90;;;;;;;;;;4995914;28;20688;-71
2024/03/18 08:20:13;;;;;;;1999.90;999.90;;;;;;;;;;4993253;28;20207;-70
2024/03/18 08:22:58;;;;;;;1999.90;999.90;;;;;;;;;;4992124;28;20227;-69
2024/03/18 08:25:44;;;;;;;1999.90;999.90;;;;;;;;;;4993606;28;20211;-70
2024/03/18 08:28:31;;;;;;;1999.90;999.90;;;;;;;;;;4993032;28;20203;-68
2024/03/18 08:31:16;;;;;;;1999.90;999.90;;;;;;;;;;4992633;28;20455;-69
2024/03/18 08:34:01;;;;;;;1999.90;999.90;;;;;;;;;;4993876;28;20233;-70
2024/03/18 08:36:46;;;;;;;1999.90;999.90;;;;;;;;;;4995143;28;20207;-68
2024/03/18 08:39:31;;;;;;;1999.90;999.90;;;;;;;;;;4993692;28;20283;-69
2024/03/18 08:42:16;;;;;;;1999.90;999.90;;;;;;;;;;4993818;28;20865;-70
2024/03/18 08:45:02;;;;;;;1999.90;999.90;;;;;;;;;;4993091;28;20841;-70
2024/03/18 08:47:48;;;;;;;1999.90;999.90;;;;;;;;;;4991925;28;20226;-71
2024/03/18 08:50:33;;;;;;;1999.90;999.90;;;;;;;;;;4992889;28;20278;-70
2024/03/18 08:53:17;;;;;;;1999.90;999.90;;;;;;;;;;4991744;28;20782;-70
2024/03/18 08:56:02;;;;;;;1999.90;999.90;;;;;;;;;;4993119;28;20207;-69
2024/03/18 08:58:48;;;;;;;1999.90;999.90;;;;;;;;;;4993178;28;20322;-70
2024/03/18 09:01:34;;;;;;;1999.90;999.90;;;;;;;;;;4992585;28;20254;-71
2024/03/18 09:04:19;;;;;;;1999.90;999.90;;;;;;;;;;4992179;28;20493;-71
2024/03/18 09:07:04;;;;;;;1999.90;999.90;;;;;;;;;;4991040;28;20583;-71
2024/03/18 09:09:50;;;;;;;1999.90;999.90;;;;;;;;;;4992267;28;20341;-68
2024/03/18 09:12:35;;;;;;;1999.90;999.90;;;;;;;;;;4991316;28;20277;-69
2024/03/18 09:15:20;;;;;;;1999.90;999.90;;;;;;;;;;4992836;28;20276;-68
2024/03/18 09:18:06;;;;;;;1999.90;999.90;;;;;;;;;;4992515;28;20229;-71
2024/03/18 09:20:54;;;;;;;1999.90;999.90;;;;;;;;;;4992835;28;20283;-71
2024/03/18 09:23:39;;;;;;;1999.90;999.90;;;;;;;;;;4990780;28;20421;-70
2024/03/18 09:26:24;;;;;;;1999.90;999.90;;;;;;;;;;4992192;28;20250;-71
2024/03/18 09:29:09;;;;;;;1999.90;999.90;;;;;;;;;;4992282;28;20944;-70
2024/03/18 09:31:54;;;;;;;1999.90;999.90;;;;;;;;;;4991326;28;20338;-69
2024/03/18 09:34:40;;;;;;;1999.90;999.90;;;;;;;;;;4992229;28;20730;-72
2024/03/18 09:37:28;;;;;;;1999.90;999.90;;;;;;;;;;4992411;28;20257;-70
2024/03/18 09:40:14;;;;;;;1999.90;999.90;;;;;;;;;;4991742;28;20250;-70
2024/03/18 09:42:58;;;;;;;1999.90;999.90;;;;;;;;;;4991403;28;20258;-71
2024/03/18 09:45:44;;;;;;;1999.90;999.90;;;;;;;;;;4992165;28;20286;-67
2024/03/18 09:48:29;;;;;;;1999.90;999.90;;;;;;;;;;4990736;28;20211;-69
2024/03/18 09:51:17;;;;;;;1999.90;999.90;;;;;;;;;;4992272;28;20293;-71
2024/03/18 09:54:03;;;;;;;1999.90;999.90;;;;;;;;;;4991740;28;20222;-69
2024/03/18 09:56:52;;;;;;;1999.90;999.90;;;;;;;;;;4991524;28;20864;-71
2024/03/18 09:59:37;;;;;;;1999.90;999.90;;;;;;;;;;4987932;28;20239;-71
2024/03/18 10:02:22;;;;;;;1999.90;999.90;;;;;;;;;;4991437;28;20207;-71
2024/03/18 10:05:09;;;;;;;1999.90;999.90;;;;;;;;;;4989584;28;20226;-70
2024/03/18 10:07:56;;;;;;;1999.90;999.90;;;;;;;;;;4991973;28;20211;-71
2024/03/18 10:10:44;;;;;;;1999.90;999.90;;;;;;;;;;4991533;28;20207;-71
2024/03/18 10:13:30;;;;;;;1999.90;999.90;;;;;;;;;;4990533;28;20726;-68
2024/03/18 10:16:15;;;;;;;1999.90;999.90;;;;;;;;;;4990024;28;20410;-70
2024/03/18 10:19:00;;;;;;;1999.90;999.90;;;;;;;;;;4989633;28;20219;-69
2024/03/18 10:21:45;;;;;;;1999.90;999.90;;;;;;;;;;4991504;28;20207;-69
2024/03/18 10:24:31;;;;;;;1999.90;999.90;;;;;;;;;;4989822;28;20325;-69
2024/03/18 10:27:16;;;;;;;1999.90;999.90;;;;;;;;;;4989722;28;20706;-69
2024/03/18 10:30:02;;;;;;;1999.90;999.90;;;;;;;;;;4989957;28;20708;-71
2024/03/18 10:32:47;;;;;;;1999.90;999.90;;;;;;;;;;4991686;28;20335;-71
2024/03/18 10:35:34;;;;;;;1999.90;999.90;;;;;;;;;;4990510;28;20211;-70
2024/03/18 10:38:22;;;;;;;1999.90;999.90;;;;;;;;;;4991115;28;20291;-70
2024/03/18 10:41:13;;;;;;;1999.90;999.90;;;;;;;;;;4990952;28;20577;-71
2024/03/18 10:44:00;;;;;;;1999.90;999.90;;;;;;;;;;4991051;28;20335;-70
2024/03/18 10:46:45;;;;;;;1999.90;999.90;;;;;;;;;;4990874;28;20203;-69
2024/03/18 10:49:30;;;;;;;1999.90;999.90;;;;;;;;;;4990498;28;20405;-70
2024/03/18 10:52:16;;;;;;;1999.90;999.90;;;;;;;;;;4991520;28;20215;-70
2024/03/18 10:55:02;;;;;;;1999.90;999.90;;;;;;;;;;4990628;28;20230;-69
2024/03/18 10:57:51;;;;;;;1999.90;999.90;;;;;;;;;;4991115;28;20211;-71
2024/03/18 11:00:36;;;;;;;1999.90;999.90;;;;;;;;;;4990481;28;20923;-70
2024/03/18 11:03:23;;;;;;;1999.90;999.90;;;;;;;;;;4989262;28;20282;-70
2024/03/18 11:06:13;;;;;;;1999.90;999.90;;;;;;;;;;4990885;28;20294;-70
2024/03/18 11:09:02;;;;;;;1999.90;999.90;;;;;;;;;;4987482;28;20413;-69
2024/03/18 11:11:47;;;;;;;1999.90;999.90;;;;;;;;;;4988810;28;20219;-71
2024/03/18 11:14:34;;;;;;;1999.90;999.90;;;;;;;;;;4989539;28;20719;-71
2024/03/18 11:17:19;;;;;;;1999.90;999.90;;;;;;;;;;4990586;28;20719;-69
2024/03/18 11:20:05;;;;;;;1999.90;999.90;;;;;;;;;;4989373;28;20211;-71
2024/03/18 11:22:58;;;;;;;1999.90;999.90;;;;;;;;;;4990210;28;20216;-70
2024/03/18 11:25:43;;;;;;;1999.90;999.90;;;;;;;;;;4988976;28;20203;-70
2024/03/18 11:28:34;;;;;;;1999.90;999.90;;;;;;;;;;4986994;28;20207;-70
2024/03/18 11:31:21;;;;;;;1999.90;999.90;;;;;;;;;;4989243;28;20588;-68
2024/03/18 11:34:07;;;;;;;1999.90;999.90;;;;;;;;;;4988644;28;20230;-70
2024/03/18 11:36:54;;;;;;;1999.90;999.90;;;;;;;;;;4989047;28;20207;-68
2024/03/18 11:39:39;;;;;;;1999.90;999.90;;;;;;;;;;4988863;28;20601;-71
2024/03/18 11:42:24;;;;;;;1999.90;999.90;;;;;;;;;;4989203;28;20508;-69
2024/03/18 11:45:15;;;;;;;1999.90;999.90;;;;;;;;;;4988452;28;20227;-71
2024/03/18 11:48:05;;;;;;;1999.90;999.90;;;;;;;;;;4990893;28;20203;-71
2024/03/18 11:50:50;;;;;;;1999.90;999.90;;;;;;;;;;4992251;28;20207;-70
2024/03/18 11:53:35;;;;;;;1999.90;999.90;;;;;;;;;;4992322;28;20227;-70
2024/03/18 11:56:20;;;;;;;1999.90;999.90;;;;;;;;;;4991980;28;20207;-71
2024/03/18 11:59:06;;;;;;;1999.90;999.90;;;;;;;;;;4992271;28;20314;-71
2024/03/18 12:01:52;;;;;;;1999.90;999.90;;;;;;;;;;4990698;28;21865;-71
2024/03/18 12:04:39;;;;;;;1999.90;999.90;;;;;;;;;;4991841;28;20282;-70
2024/03/18 12:07:24;;;;;;;1999.90;999.90;;;;;;;;;;4992678;28;20206;-71
2024/03/18 12:10:10;;;;;;;1999.90;999.90;;;;;;;;;;4991834;28;20203;-70
2024/03/18 12:12:55;;;;;;;1999.90;999.90;;;;;;;;;;4992307;28;20215;-69
2024/03/18 12:15:40;;;;;;;1999.90;999.90;;;;;;;;;;4992485;28;20719;-69
2024/03/18 12:18:25;;;;;;;1999.90;999.90;;;;;;;;;;4991647;28;20207;-69
2024/03/18 12:21:11;;;;;;;1999.90;999.90;;;;;;;;;;4989623;28;20204;-67
2024/03/18 12:30:19;;;;;;;1999.90;999.90;;;;;;;;;;4993186;28;20582;-69
2024/03/18 12:33:05;;;;;;;1999.90;999.90;;;;;;;;;;4991862;28;20216;-70
2024/03/18 12:35:51;;;;;;;1999.90;999.90;;;;;;;;;;4992860;28;20413;-69
2024/03/18 12:38:38;;;;;;;1999.90;999.90;;;;;;;;;;4993715;28;20346;-69
2024/03/18 12:41:23;;;;;;;1999.90;999.90;;;;;;;;;;4993520;28;20204;-69
2024/03/18 12:44:09;;;;;;;1999.90;999.90;;;;;;;;;;4992865;28;20227;-69
2024/03/18 12:46:53;;;;;;;1999.90;999.90;;;;;;;;;;4992976;28;20743;-68
2024/03/18 12:49:38;;;;;;;1999.90;999.90;;;;;;;;;;4992754;28;20315;-69
2024/03/18 12:52:24;;;;;;;1999.90;999.90;;;;;;;;;;4993057;28;20226;-69
2024/03/18 12:55:11;;;;;;;1999.90;999.90;;;;;;;;;;4991489;28;20401;-69
2024/03/18 12:57:56;;;;;;;1999.90;999.90;;;;;;;;;;4989812;28;20286;-69
2024/03/18 13:00:41;;;;;;;1999.90;999.90;;;;;;;;;;4992468;28;20717;-70
2024/03/18 13:03:26;;;;;;;1999.90;999.90;;;;;;;;;;4992686;28;20238;-69
2024/03/18 13:06:11;;;;;;;1999.90;999.90;;;;;;;;;;4992667;28;20207;-68
2024/03/18 13:08:56;;;;;;;1999.90;999.90;;;;;;;;;;4991698;28;20211;-69
2024/03/18 13:11:42;;;;;;;1999.90;999.90;;;;;;;;;;4992381;28;20242;-69
2024/03/18 13:14:27;;;;;;;1999.90;999.90;;;;;;;;;;4990425;28;20704;-69
2024/03/18 13:17:13;;;;;;;1999.90;999.90;;;;;;;;;;4990599;28;20695;-69
2024/03/18 13:19:58;;;;;;;1999.90;999.90;;;;;;;;;;4992682;28;20231;-70
2024/03/18 13:22:43;;;;;;;1999.90;999.90;;;;;;;;;;4992587;28;20573;-68
2024/03/18 13:25:28;;;;;;;1999.90;999.90;;;;;;;;;;4992475;28;20207;-67
2024/03/18 13:28:15;;;;;;;1999.90;999.90;;;;;;;;;;4992227;28;20366;-68
2024/03/18 13:31:00;;;;;;;1999.90;999.90;;;;;;;;;;4989945;28;20263;-69
2024/03/18 13:33:45;;;;;;;1999.90;999.90;;;;;;;;;;4992160;28;20278;-68
2024/03/18 13:36:30;;;;;;;1999.90;999.90;;;;;;;;;;4992016;28;20191;-68
2024/03/18 13:39:14;;;;;;;1999.90;999.90;;;;;;;;;;4991705;28;20574;-68
2024/03/18 13:42:01;;;;;;;1999.90;999.90;;;;;;;;;;4991472;28;20722;-69
2024/03/18 13:44:47;;;;;;;1999.90;999.90;;;;;;;;;;4991767;28;20751;-68
2024/03/18 13:47:32;;;;;;;1999.90;999.90;;;;;;;;;;4988290;28;20395;-70
2024/03/18 13:50:19;;;;;;;1999.90;999.90;;;;;;;;;;4993088;28;20612;-69
2024/03/18 13:53:04;;;;;;;1999.90;999.90;;;;;;;;;;4993472;28;20330;-68
2024/03/18 13:55:49;;;;;;;1999.90;999.90;;;;;;;;;;4992294;28;20210;-69
2024/03/18 13:58:34;;;;;;;1999.90;999.90;;;;;;;;;;4993852;28;20274;-66
2024/03/18 14:01:21;;;;;;;1999.90;999.90;;;;;;;;;;4993348;28;20747;-68
2024/03/18 14:04:06;;;;;;;1999.90;999.90;;;;;;;;;;4993325;28;20342;-69
2024/03/18 14:06:50;;;;;;;1999.90;999.90;;;;;;;;;;4994077;28;20211;-69
2024/03/18 14:09:35;;;;;;;1999.90;999.90;;;;;;;;;;4993124;28;20207;-68
2024/03/18 14:12:22;;;;;;;1999.90;999.90;;;;;;;;;;4993163;28;20203;-69
2024/03/18 14:15:07;;;;;;;1999.90;999.90;;;;;;;;;;4993284;28;20283;-69
2024/03/18 14:17:54;;;;;;;1999.90;999.90;;;;;;;;;;4993754;28;20207;-68
2024/03/18 14:20:39;;;;;;;1999.90;999.90;;;;;;;;;;4993053;28;20403;-69
2024/03/18 14:23:24;;;;;;;1999.90;999.90;;;;;;;;;;4993021;28;20231;-69
2024/03/18 14:26:12;;;;;;;1999.90;999.90;;;;;;;;;;4992696;28;20273;-68
2024/03/18 14:28:58;;;;;;;1999.90;999.90;;;;;;;;;;4993160;28;20226;-69
2024/03/18 14:31:43;;;;;;;1999.90;999.90;;;;;;;;;;4993354;28;20199;-67
2024/03/18 14:34:29;;;;;;;1999.90;999.90;;;;;;;;;;4992870;28;20662;-69
2024/03/18 14:37:14;;;;;;;1999.90;999.90;;;;;;;;;;4993357;28;20270;-69
2024/03/18 14:39:59;;;;;;;1999.90;999.90;;;;;;;;;;4992246;28;20442;-69
2024/03/18 14:42:46;;;;;;;1999.90;999.90;;;;;;;;;;4992620;28;20716;-68
2024/03/18 14:45:32;;;;;;;1999.90;999.90;;;;;;;;;;4984729;28;20207;-68
2024/03/18 14:48:18;;;;;;;1999.90;999.90;;;;;;;;;;4992958;28;20218;-69
2024/03/18 14:51:05;;;;;;;1999.90;999.90;;;;;;;;;;4993172;28;20207;-67
2024/03/18 14:53:50;;;;;;;1999.90;999.90;;;;;;;;;;4993000;28;20350;-69
2024/03/18 14:56:35;;;;;;;1999.90;999.90;;;;;;;;;;4992688;28;20589;-68
2024/03/18 14:59:20;;;;;;;1999.90;999.90;;;;;;;;;;4993003;28;20664;-69
2024/03/18 15:02:06;;;;;;;1999.90;999.90;;;;;;;;;;4992890;28;20207;-69
2024/03/18 15:04:51;;;;;;;1999.90;999.90;;;;;;;;;;4992431;28;20596;-69
2024/03/18 15:07:37;;;;;;;1999.90;999.90;;;;;;;;;;4993033;28;20214;-69
2024/03/18 15:10:23;;;;;;;1999.90;999.90;;;;;;;;;;4993013;28;20199;-69
2024/03/18 15:13:08;;;;;;;1999.90;999.90;;;;;;;;;;4991684;28;20477;-69
2024/03/18 15:15:54;;;;;;;1999.90;999.90;;;;;;;;;;4992898;28;20204;-69
2024/03/18 15:18:39;;;;;;;1999.90;999.90;;;;;;;;;;4992606;28;20207;-69
2024/03/18 15:21:23;;;;;;;1999.90;999.90;;;;;;;;;;4992139;28;20267;-69
2024/03/18 15:24:27;;;;;;;1999.90;999.90;;;;;;;;;;4988797;28;20401;-68
2024/03/18 15:30:15;;;;;;;1999.90;999.90;;;;;;;;;;4990163;28;20461;-69
2024/03/18 15:33:00;;;;;;;1999.90;999.90;;;;;;;;;;4990412;28;20219;-68